sensor_id;sensor_type;location;lat;lon;timestamp;temperature;humidity
7290;DHT22;3686;52.678;13.252;2022-08-01T00:00:38;21.90;93.00
7290;DHT22;3686;52.678;13.252;2022-08-01T00:03:04;21.80;95.60
7290;DHT22;3686;52.678;13.252;2022-08-01T00:05:30;21.80;98.20
7290;DHT22;3686;52.678;13.252;2022-08-01T00:07:55;21.80;99.90
7290;DHT22;3686;52.678;13.252;2022-08-01T00:10:21;21.70;99.90
7290;DHT22;3686;52.678;13.252;2022-08-01T00:12:46;21.70;99.90
7290;DHT22;3686;52.678;13.252;2022-08-01T00:15:14;21.70;99.90
7290;DHT22;3686;52.678;13.252;2022-08-01T00:17:41;21.60;99.90
7290;DHT22;3686;52.678;13.252;2022-08-01T00:20:09;21.60;99.90
7290;DHT22;3686;52.678;13.252;2022-08-01T00:22:35;21.50;1.00
7290;DHT22;3686;52.678;13.252;2022-08-01T00:25:02;21.30;1.00
7290;DHT22;3686;52.678;13.252;2022-08-01T00:27:28;21.20;1.00
7290;DHT22;3686;52.678;13.252;2022-08-01T00:29:54;21.00;1.00
7290;DHT22;3686;52.678;13.252;2022-08-01T00:32:19;20.80;1.00
7290;DHT22;3686;52.678;13.252;2022-08-01T00:34:45;20.70;1.00
7290;DHT22;3686;52.678;13.252;2022-08-01T00:37:11;20.60;1.00
7290;DHT22;3686;52.678;13.252;2022-08-01T00:39:36;20.50;99.90
7290;DHT22;3686;52.678;13.252;2022-08-01T00:42:10;20.50;1.00
7290;DHT22;3686;52.678;13.252;2022-08-01T00:44:36;20.40;99.90
7290;DHT22;3686;52.678;13.252;2022-08-01T00:47:02;20.40;1.00
7290;DHT22;3686;52.678;13.252;2022-08-01T00:49:28;20.30;1.00
7290;DHT22;3686;52.678;13.252;2022-08-01T00:51:55;20.30;24.60
7290;DHT22;3686;52.678;13.252;2022-08-01T00:54:22;20.20;88.80
7290;DHT22;3686;52.678;13.252;2022-08-01T00:56:48;20.20;99.90
7290;DHT22;3686;52.678;13.252;2022-08-01T00:59:17;20.20;99.90
7290;DHT22;3686;52.678;13.252;2022-08-01T01:01:43;20.10;99.90
7290;DHT22;3686;52.678;13.252;2022-08-01T01:04:08;20.10;99.90
7290;DHT22;3686;52.678;13.252;2022-08-01T01:14:26;20.10;99.90
7290;DHT22;3686;52.678;13.252;2022-08-01T01:16:53;20.10;99.90
7290;DHT22;3686;52.678;13.252;2022-08-01T01:19:24;20.10;1.00
7290;DHT22;3686;52.678;13.252;2022-08-01T01:27:57;20.00;1.00
7290;DHT22;3686;52.678;13.252;2022-08-01T01:30:25;19.90;1.00
7290;DHT22;3686;52.678;13.252;2022-08-01T01:32:54;19.90;1.00
7290;DHT22;3686;52.678;13.252;2022-08-01T01:35:24;19.90;1.00
7290;DHT22;3686;52.678;13.252;2022-08-01T01:37:58;19.90;1.00
7290;DHT22;3686;52.678;13.252;2022-08-01T01:40:25;19.90;1.00
7290;DHT22;3686;52.678;13.252;2022-08-01T01:42:54;19.90;1.00
7290;DHT22;3686;52.678;13.252;2022-08-01T01:45:21;19.90;1.00
7290;DHT22;3686;52.678;13.252;2022-08-01T01:47:49;19.80;1.00
7290;DHT22;3686;52.678;13.252;2022-08-01T01:50:16;19.80;1.00
7290;DHT22;3686;52.678;13.252;2022-08-01T01:52:44;19.70;1.00
7290;DHT22;3686;52.678;13.252;2022-08-01T01:55:12;19.60;1.00
7290;DHT22;3686;52.678;13.252;2022-08-01T01:57:40;19.60;1.00
7290;DHT22;3686;52.678;13.252;2022-08-01T02:00:07;19.60;1.00
7290;DHT22;3686;52.678;13.252;2022-08-01T02:02:38;19.50;1.00
7290;DHT22;3686;52.678;13.252;2022-08-01T02:05:10;19.40;1.00
7290;DHT22;3686;52.678;13.252;2022-08-01T02:07:36;19.30;1.00
7290;DHT22;3686;52.678;13.252;2022-08-01T02:10:04;19.30;1.00
7290;DHT22;3686;52.678;13.252;2022-08-01T02:12:34;19.30;1.00
7290;DHT22;3686;52.678;13.252;2022-08-01T02:15:01;19.20;1.00
7290;DHT22;3686;52.678;13.252;2022-08-01T02:17:30;19.20;1.00
7290;DHT22;3686;52.678;13.252;2022-08-01T02:19:57;19.30;1.00
7290;DHT22;3686;52.678;13.252;2022-08-01T02:22:44;19.30;1.00
7290;DHT22;3686;52.678;13.252;2022-08-01T02:28:01;19.30;1.00
7290;DHT22;3686;52.678;13.252;2022-08-01T02:30:35;19.30;1.00
7290;DHT22;3686;52.678;13.252;2022-08-01T02:33:22;19.30;1.00
7290;DHT22;3686;52.678;13.252;2022-08-01T02:38:44;19.20;1.00
7290;DHT22;3686;52.678;13.252;2022-08-01T02:41:14;19.30;1.00
7290;DHT22;3686;52.678;13.252;2022-08-01T02:43:45;19.30;1.00
7290;DHT22;3686;52.678;13.252;2022-08-01T02:46:16;19.30;1.00
7290;DHT22;3686;52.678;13.252;2022-08-01T02:48:43;19.30;1.00
7290;DHT22;3686;52.678;13.252;2022-08-01T02:51:11;19.30;1.00
7290;DHT22;3686;52.678;13.252;2022-08-01T02:53:39;19.30;1.00
7290;DHT22;3686;52.678;13.252;2022-08-01T02:56:07;19.30;1.00
7290;DHT22;3686;52.678;13.252;2022-08-01T02:58:34;19.30;1.00
7290;DHT22;3686;52.678;13.252;2022-08-01T03:01:02;19.30;1.00
7290;DHT22;3686;52.678;13.252;2022-08-01T03:03:29;19.30;1.00
7290;DHT22;3686;52.678;13.252;2022-08-01T03:05:56;19.30;1.00
7290;DHT22;3686;52.678;13.252;2022-08-01T03:08:24;19.30;1.00
7290;DHT22;3686;52.678;13.252;2022-08-01T03:10:50;19.30;1.00
7290;DHT22;3686;52.678;13.252;2022-08-01T03:13:18;19.30;1.00
7290;DHT22;3686;52.678;13.252;2022-08-01T03:15:45;19.30;1.00
7290;DHT22;3686;52.678;13.252;2022-08-01T03:18:13;19.30;1.00
7290;DHT22;3686;52.678;13.252;2022-08-01T03:20:40;19.30;1.00
7290;DHT22;3686;52.678;13.252;2022-08-01T03:23:09;19.30;1.00
7290;DHT22;3686;52.678;13.252;2022-08-01T03:25:37;19.40;1.00
7290;DHT22;3686;52.678;13.252;2022-08-01T03:28:06;19.40;1.00
7290;DHT22;3686;52.678;13.252;2022-08-01T03:30:33;19.40;1.00
7290;DHT22;3686;52.678;13.252;2022-08-01T03:33:01;19.50;1.00
7290;DHT22;3686;52.678;13.252;2022-08-01T03:35:30;19.50;1.00
7290;DHT22;3686;52.678;13.252;2022-08-01T03:38:00;19.50;1.00
7290;DHT22;3686;52.678;13.252;2022-08-01T03:40:39;19.50;1.00
7290;DHT22;3686;52.678;13.252;2022-08-01T03:46:00;19.60;1.00
7290;DHT22;3686;52.678;13.252;2022-08-01T03:48:28;19.50;1.00
7290;DHT22;3686;52.678;13.252;2022-08-01T03:50:58;19.50;1.00
7290;DHT22;3686;52.678;13.252;2022-08-01T03:53:30;19.60;1.00
7290;DHT22;3686;52.678;13.252;2022-08-01T03:55:56;19.60;1.00
7290;DHT22;3686;52.678;13.252;2022-08-01T03:58:24;19.50;1.00
7290;DHT22;3686;52.678;13.252;2022-08-01T04:00:51;19.60;1.00
7290;DHT22;3686;52.678;13.252;2022-08-01T04:03:17;19.50;1.00
7290;DHT22;3686;52.678;13.252;2022-08-01T04:05:43;19.60;1.00
7290;DHT22;3686;52.678;13.252;2022-08-01T04:08:09;19.60;1.00
7290;DHT22;3686;52.678;13.252;2022-08-01T04:10:35;19.60;1.00
7290;DHT22;3686;52.678;13.252;2022-08-01T04:13:01;19.60;1.00
7290;DHT22;3686;52.678;13.252;2022-08-01T04:15:28;19.50;1.00
7290;DHT22;3686;52.678;13.252;2022-08-01T04:17:53;19.50;1.00
7290;DHT22;3686;52.678;13.252;2022-08-01T04:23:39;19.40;1.00
7290;DHT22;3686;52.678;13.252;2022-08-01T04:26:07;19.50;1.00
7290;DHT22;3686;52.678;13.252;2022-08-01T04:28:35;19.50;1.00
7290;DHT22;3686;52.678;13.252;2022-08-01T04:31:02;19.50;1.00
7290;DHT22;3686;52.678;13.252;2022-08-01T04:33:30;19.50;1.00
7290;DHT22;3686;52.678;13.252;2022-08-01T04:35:58;19.40;1.00
7290;DHT22;3686;52.678;13.252;2022-08-01T04:38:26;19.50;1.00
7290;DHT22;3686;52.678;13.252;2022-08-01T04:40:54;19.50;1.00
7290;DHT22;3686;52.678;13.252;2022-08-01T04:43:20;19.40;1.00
7290;DHT22;3686;52.678;13.252;2022-08-01T04:45:47;19.50;1.00
7290;DHT22;3686;52.678;13.252;2022-08-01T04:48:15;19.50;1.00
7290;DHT22;3686;52.678;13.252;2022-08-01T04:50:42;19.50;1.00
7290;DHT22;3686;52.678;13.252;2022-08-01T04:53:16;19.50;1.00
7290;DHT22;3686;52.678;13.252;2022-08-01T04:55:46;19.50;1.00
7290;DHT22;3686;52.678;13.252;2022-08-01T04:58:12;19.50;1.00
7290;DHT22;3686;52.678;13.252;2022-08-01T05:00:38;19.50;1.00
7290;DHT22;3686;52.678;13.252;2022-08-01T05:03:04;19.50;1.00
7290;DHT22;3686;52.678;13.252;2022-08-01T05:05:30;19.40;1.00
7290;DHT22;3686;52.678;13.252;2022-08-01T05:07:58;19.40;1.00
7290;DHT22;3686;52.678;13.252;2022-08-01T05:10:25;19.40;1.00
7290;DHT22;3686;52.678;13.252;2022-08-01T05:12:52;19.40;1.00
7290;DHT22;3686;52.678;13.252;2022-08-01T05:15:19;19.40;1.00
7290;DHT22;3686;52.678;13.252;2022-08-01T05:17:45;19.50;1.00
7290;DHT22;3686;52.678;13.252;2022-08-01T05:20:12;19.50;1.00
7290;DHT22;3686;52.678;13.252;2022-08-01T05:22:38;19.50;1.00
7290;DHT22;3686;52.678;13.252;2022-08-01T05:25:04;19.50;1.00
7290;DHT22;3686;52.678;13.252;2022-08-01T05:27:31;19.60;1.00
7290;DHT22;3686;52.678;13.252;2022-08-01T05:29:57;19.60;1.00
7290;DHT22;3686;52.678;13.252;2022-08-01T05:32:23;19.60;1.00
7290;DHT22;3686;52.678;13.252;2022-08-01T05:34:48;19.60;1.00
7290;DHT22;3686;52.678;13.252;2022-08-01T05:37:14;19.60;1.00
7290;DHT22;3686;52.678;13.252;2022-08-01T05:39:40;19.70;1.00
7290;DHT22;3686;52.678;13.252;2022-08-01T05:42:06;19.70;1.00
7290;DHT22;3686;52.678;13.252;2022-08-01T05:44:32;19.60;1.00
7290;DHT22;3686;52.678;13.252;2022-08-01T05:46:57;19.70;1.00
7290;DHT22;3686;52.678;13.252;2022-08-01T05:49:23;19.70;1.00
7290;DHT22;3686;52.678;13.252;2022-08-01T05:51:48;19.70;1.00
7290;DHT22;3686;52.678;13.252;2022-08-01T05:54:14;19.80;1.00
7290;DHT22;3686;52.678;13.252;2022-08-01T05:56:40;19.70;1.00
7290;DHT22;3686;52.678;13.252;2022-08-01T05:59:06;19.70;1.00
7290;DHT22;3686;52.678;13.252;2022-08-01T06:01:32;19.70;1.00
7290;DHT22;3686;52.678;13.252;2022-08-01T06:03:57;19.70;1.00
7290;DHT22;3686;52.678;13.252;2022-08-01T06:06:23;19.70;1.00
7290;DHT22;3686;52.678;13.252;2022-08-01T06:08:48;19.70;1.00
7290;DHT22;3686;52.678;13.252;2022-08-01T06:11:14;19.70;1.00
7290;DHT22;3686;52.678;13.252;2022-08-01T06:13:40;19.80;1.00
7290;DHT22;3686;52.678;13.252;2022-08-01T06:16:06;19.80;1.00
7290;DHT22;3686;52.678;13.252;2022-08-01T06:18:31;19.80;1.00
7290;DHT22;3686;52.678;13.252;2022-08-01T06:20:57;19.90;1.00
7290;DHT22;3686;52.678;13.252;2022-08-01T06:23:23;20.00;1.00
7290;DHT22;3686;52.678;13.252;2022-08-01T06:25:52;20.10;1.00
7290;DHT22;3686;52.678;13.252;2022-08-01T06:28:18;20.10;1.00
7290;DHT22;3686;52.678;13.252;2022-08-01T06:30:44;20.20;1.00
7290;DHT22;3686;52.678;13.252;2022-08-01T06:33:09;20.20;1.00
7290;DHT22;3686;52.678;13.252;2022-08-01T06:35:35;20.20;1.00
7290;DHT22;3686;52.678;13.252;2022-08-01T06:38:03;20.30;1.00
7290;DHT22;3686;52.678;13.252;2022-08-01T06:40:28;20.30;1.00
7290;DHT22;3686;52.678;13.252;2022-08-01T06:42:54;20.30;1.00
7290;DHT22;3686;52.678;13.252;2022-08-01T06:45:20;20.30;1.00
7290;DHT22;3686;52.678;13.252;2022-08-01T06:47:47;20.30;1.00
7290;DHT22;3686;52.678;13.252;2022-08-01T06:50:13;20.30;1.00
7290;DHT22;3686;52.678;13.252;2022-08-01T06:52:40;20.30;1.00
7290;DHT22;3686;52.678;13.252;2022-08-01T06:55:07;20.30;1.00
7290;DHT22;3686;52.678;13.252;2022-08-01T06:57:33;20.40;1.00
7290;DHT22;3686;52.678;13.252;2022-08-01T07:00:04;20.50;1.00
7290;DHT22;3686;52.678;13.252;2022-08-01T07:02:36;20.60;1.00
7290;DHT22;3686;52.678;13.252;2022-08-01T07:05:03;20.60;1.00
7290;DHT22;3686;52.678;13.252;2022-08-01T07:07:30;20.70;1.00
7290;DHT22;3686;52.678;13.252;2022-08-01T07:09:55;20.70;1.00
7290;DHT22;3686;52.678;13.252;2022-08-01T07:12:21;20.70;1.00
7290;DHT22;3686;52.678;13.252;2022-08-01T07:14:47;20.60;1.00
7290;DHT22;3686;52.678;13.252;2022-08-01T07:17:13;20.60;1.00
7290;DHT22;3686;52.678;13.252;2022-08-01T07:19:38;20.60;1.00
7290;DHT22;3686;52.678;13.252;2022-08-01T07:22:04;20.60;1.00
7290;DHT22;3686;52.678;13.252;2022-08-01T07:24:29;20.70;1.00
7290;DHT22;3686;52.678;13.252;2022-08-01T07:26:55;20.70;1.00
7290;DHT22;3686;52.678;13.252;2022-08-01T07:29:26;20.80;1.00
7290;DHT22;3686;52.678;13.252;2022-08-01T07:31:54;20.90;1.00
7290;DHT22;3686;52.678;13.252;2022-08-01T07:34:21;20.90;1.00
7290;DHT22;3686;52.678;13.252;2022-08-01T07:36:46;20.80;1.00
7290;DHT22;3686;52.678;13.252;2022-08-01T07:39:12;20.80;1.00
7290;DHT22;3686;52.678;13.252;2022-08-01T07:41:38;20.80;1.00
7290;DHT22;3686;52.678;13.252;2022-08-01T07:44:03;20.80;1.00
7290;DHT22;3686;52.678;13.252;2022-08-01T07:46:30;20.80;1.00
7290;DHT22;3686;52.678;13.252;2022-08-01T07:49:11;20.80;1.00
7290;DHT22;3686;52.678;13.252;2022-08-01T07:51:36;20.80;1.00
7290;DHT22;3686;52.678;13.252;2022-08-01T07:54:03;20.80;1.00
7290;DHT22;3686;52.678;13.252;2022-08-01T07:56:29;20.90;1.00
7290;DHT22;3686;52.678;13.252;2022-08-01T07:58:54;21.00;1.00
7290;DHT22;3686;52.678;13.252;2022-08-01T08:01:20;21.00;1.00
7290;DHT22;3686;52.678;13.252;2022-08-01T08:03:46;21.00;1.00
7290;DHT22;3686;52.678;13.252;2022-08-01T08:06:11;21.00;1.00
7290;DHT22;3686;52.678;13.252;2022-08-01T08:08:37;21.00;1.00
7290;DHT22;3686;52.678;13.252;2022-08-01T08:11:03;21.00;1.00
7290;DHT22;3686;52.678;13.252;2022-08-01T08:13:28;21.00;1.00
7290;DHT22;3686;52.678;13.252;2022-08-01T08:15:54;21.00;1.00
7290;DHT22;3686;52.678;13.252;2022-08-01T08:18:21;21.00;1.00
7290;DHT22;3686;52.678;13.252;2022-08-01T08:20:46;21.00;99.90
7290;DHT22;3686;52.678;13.252;2022-08-01T08:23:12;20.90;99.90
7290;DHT22;3686;52.678;13.252;2022-08-01T08:25:56;20.90;1.00
7290;DHT22;3686;52.678;13.252;2022-08-01T08:28:21;20.90;1.00
7290;DHT22;3686;52.678;13.252;2022-08-01T08:30:47;21.00;1.00
7290;DHT22;3686;52.678;13.252;2022-08-01T08:33:13;21.00;1.00
7290;DHT22;3686;52.678;13.252;2022-08-01T08:35:41;21.10;1.00
7290;DHT22;3686;52.678;13.252;2022-08-01T08:38:07;21.30;1.00
7290;DHT22;3686;52.678;13.252;2022-08-01T08:40:35;21.40;99.90
7290;DHT22;3686;52.678;13.252;2022-08-01T08:43:03;21.40;99.90
7290;DHT22;3686;52.678;13.252;2022-08-01T08:45:29;21.50;99.90
7290;DHT22;3686;52.678;13.252;2022-08-01T08:47:56;21.50;1.00
7290;DHT22;3686;52.678;13.252;2022-08-01T08:50:23;21.50;99.90
7290;DHT22;3686;52.678;13.252;2022-08-01T08:52:49;21.50;1.00
7290;DHT22;3686;52.678;13.252;2022-08-01T08:55:16;21.40;1.00
7290;DHT22;3686;52.678;13.252;2022-08-01T08:57:44;21.40;1.00
7290;DHT22;3686;52.678;13.252;2022-08-01T09:00:10;21.40;1.00
7290;DHT22;3686;52.678;13.252;2022-08-01T09:02:44;21.30;99.90
7290;DHT22;3686;52.678;13.252;2022-08-01T09:05:11;21.30;1.00
7290;DHT22;3686;52.678;13.252;2022-08-01T09:07:37;21.30;1.00
7290;DHT22;3686;52.678;13.252;2022-08-01T09:10:04;21.10;1.00
7290;DHT22;3686;52.678;13.252;2022-08-01T09:12:30;21.10;1.00
7290;DHT22;3686;52.678;13.252;2022-08-01T09:14:56;21.10;1.00
7290;DHT22;3686;52.678;13.252;2022-08-01T09:17:22;21.00;99.90
7290;DHT22;3686;52.678;13.252;2022-08-01T09:19:50;21.00;99.90
7290;DHT22;3686;52.678;13.252;2022-08-01T09:22:24;21.00;11.40
7290;DHT22;3686;52.678;13.252;2022-08-01T09:25:16;20.90;87.50
7290;DHT22;3686;52.678;13.252;2022-08-01T09:27:42;20.90;99.90
7290;DHT22;3686;52.678;13.252;2022-08-01T09:30:13;20.90;1.00
7290;DHT22;3686;52.678;13.252;2022-08-01T09:33:00;20.90;99.90
7290;DHT22;3686;52.678;13.252;2022-08-01T09:35:31;20.90;1.00
7290;DHT22;3686;52.678;13.252;2022-08-01T09:38:24;20.80;1.00
7290;DHT22;3686;52.678;13.252;2022-08-01T09:40:59;20.80;1.00
7290;DHT22;3686;52.678;13.252;2022-08-01T09:43:30;20.80;99.90
7290;DHT22;3686;52.678;13.252;2022-08-01T09:45:56;20.90;99.90
7290;DHT22;3686;52.678;13.252;2022-08-01T09:48:23;20.90;99.90
7290;DHT22;3686;52.678;13.252;2022-08-01T09:50:50;20.90;99.90
7290;DHT22;3686;52.678;13.252;2022-08-01T09:53:16;21.10;99.90
7290;DHT22;3686;52.678;13.252;2022-08-01T09:55:42;21.10;1.00
7290;DHT22;3686;52.678;13.252;2022-08-01T09:58:09;21.20;1.00
7290;DHT22;3686;52.678;13.252;2022-08-01T10:00:37;21.40;1.00
7290;DHT22;3686;52.678;13.252;2022-08-01T10:03:23;21.50;1.00
7290;DHT22;3686;52.678;13.252;2022-08-01T10:05:49;21.60;1.00
7290;DHT22;3686;52.678;13.252;2022-08-01T10:08:17;21.70;1.00
7290;DHT22;3686;52.678;13.252;2022-08-01T10:11:07;21.70;1.00
7290;DHT22;3686;52.678;13.252;2022-08-01T10:13:33;21.70;1.00
7290;DHT22;3686;52.678;13.252;2022-08-01T10:16:00;21.70;1.00
7290;DHT22;3686;52.678;13.252;2022-08-01T10:18:31;21.70;1.00
7290;DHT22;3686;52.678;13.252;2022-08-01T10:20:58;21.70;1.90
7290;DHT22;3686;52.678;13.252;2022-08-01T10:23:30;21.70;1.00
7290;DHT22;3686;52.678;13.252;2022-08-01T10:25:58;21.60;1.00
7290;DHT22;3686;52.678;13.252;2022-08-01T10:28:26;21.50;1.00
7290;DHT22;3686;52.678;13.252;2022-08-01T10:30:57;21.50;99.90
7290;DHT22;3686;52.678;13.252;2022-08-01T10:33:24;21.40;1.00
7290;DHT22;3686;52.678;13.252;2022-08-01T10:35:52;21.40;1.00
7290;DHT22;3686;52.678;13.252;2022-08-01T10:38:18;21.30;99.90
7290;DHT22;3686;52.678;13.252;2022-08-01T10:40:45;21.30;99.90
7290;DHT22;3686;52.678;13.252;2022-08-01T10:43:13;21.40;1.00
7290;DHT22;3686;52.678;13.252;2022-08-01T10:45:42;21.40;1.00
7290;DHT22;3686;52.678;13.252;2022-08-01T10:48:29;21.40;99.90
7290;DHT22;3686;52.678;13.252;2022-08-01T10:51:01;21.40;1.00
7290;DHT22;3686;52.678;13.252;2022-08-01T10:53:27;21.40;1.00
7290;DHT22;3686;52.678;13.252;2022-08-01T10:58:25;21.20;1.00
7290;DHT22;3686;52.678;13.252;2022-08-01T11:04:11;20.90;99.90
7290;DHT22;3686;52.678;13.252;2022-08-01T11:11:58;20.80;99.90
7290;DHT22;3686;52.678;13.252;2022-08-01T11:14:25;20.80;1.00
7290;DHT22;3686;52.678;13.252;2022-08-01T11:16:51;21.00;99.90
7290;DHT22;3686;52.678;13.252;2022-08-01T11:19:17;21.10;1.00
7290;DHT22;3686;52.678;13.252;2022-08-01T11:27:30;21.60;1.00
7290;DHT22;3686;52.678;13.252;2022-08-01T11:32:53;21.80;99.90
7290;DHT22;3686;52.678;13.252;2022-08-01T11:35:21;21.90;1.00
7290;DHT22;3686;52.678;13.252;2022-08-01T11:37:49;22.00;1.00
7290;DHT22;3686;52.678;13.252;2022-08-01T11:40:24;22.00;1.00
7290;DHT22;3686;52.678;13.252;2022-08-01T11:45:55;22.10;1.00
7290;DHT22;3686;52.678;13.252;2022-08-01T11:48:22;22.10;1.00
7290;DHT22;3686;52.678;13.252;2022-08-01T11:50:50;22.10;1.00
7290;DHT22;3686;52.678;13.252;2022-08-01T11:53:17;22.20;1.00
7290;DHT22;3686;52.678;13.252;2022-08-01T11:55:52;22.30;1.00
7290;DHT22;3686;52.678;13.252;2022-08-01T11:58:23;22.40;1.00
7290;DHT22;3686;52.678;13.252;2022-08-01T12:00:54;22.50;99.90
7290;DHT22;3686;52.678;13.252;2022-08-01T12:03:28;22.70;99.90
7290;DHT22;3686;52.678;13.252;2022-08-01T12:05:55;22.80;99.90
7290;DHT22;3686;52.678;13.252;2022-08-01T12:08:27;22.90;99.90
7290;DHT22;3686;52.678;13.252;2022-08-01T12:10:53;23.10;99.90
7290;DHT22;3686;52.678;13.252;2022-08-01T12:13:19;23.30;99.30
7290;DHT22;3686;52.678;13.252;2022-08-01T12:15:46;23.50;1.00
7290;DHT22;3686;52.678;13.252;2022-08-01T12:18:12;23.80;1.00
7290;DHT22;3686;52.678;13.252;2022-08-01T12:20:44;24.10;1.00
7290;DHT22;3686;52.678;13.252;2022-08-01T12:23:15;24.10;1.00
7290;DHT22;3686;52.678;13.252;2022-08-01T12:25:41;24.00;1.00
7290;DHT22;3686;52.678;13.252;2022-08-01T12:28:11;23.80;1.00
7290;DHT22;3686;52.678;13.252;2022-08-01T12:30:40;23.70;1.00
7290;DHT22;3686;52.678;13.252;2022-08-01T12:33:09;23.60;1.00
7290;DHT22;3686;52.678;13.252;2022-08-01T12:35:37;23.40;1.00
7290;DHT22;3686;52.678;13.252;2022-08-01T12:38:13;23.30;1.00
7290;DHT22;3686;52.678;13.252;2022-08-01T12:40:41;23.20;1.00
7290;DHT22;3686;52.678;13.252;2022-08-01T12:43:09;23.10;1.00
7290;DHT22;3686;52.678;13.252;2022-08-01T12:48:01;22.90;1.00
7290;DHT22;3686;52.678;13.252;2022-08-01T12:50:31;22.90;1.00
7290;DHT22;3686;52.678;13.252;2022-08-01T12:52:57;22.80;1.00
7290;DHT22;3686;52.678;13.252;2022-08-01T12:55:25;22.70;1.00
7290;DHT22;3686;52.678;13.252;2022-08-01T12:58:04;22.60;1.00
7290;DHT22;3686;52.678;13.252;2022-08-01T13:00:30;22.50;99.90
7290;DHT22;3686;52.678;13.252;2022-08-01T13:03:08;22.40;1.00
7290;DHT22;3686;52.678;13.252;2022-08-01T13:08:15;22.20;90.90
7290;DHT22;3686;52.678;13.252;2022-08-01T13:10:42;22.20;99.90
7290;DHT22;3686;52.678;13.252;2022-08-01T13:13:09;22.10;99.90
7290;DHT22;3686;52.678;13.252;2022-08-01T13:15:37;22.10;1.00
7290;DHT22;3686;52.678;13.252;2022-08-01T13:18:25;22.10;1.00
7290;DHT22;3686;52.678;13.252;2022-08-01T13:21:07;22.10;99.90
7290;DHT22;3686;52.678;13.252;2022-08-01T13:23:34;22.00;1.00
7290;DHT22;3686;52.678;13.252;2022-08-01T13:26:00;22.00;99.90
7290;DHT22;3686;52.678;13.252;2022-08-01T13:28:26;22.00;1.00
7290;DHT22;3686;52.678;13.252;2022-08-01T13:30:55;22.00;99.90
7290;DHT22;3686;52.678;13.252;2022-08-01T13:33:21;22.00;99.90
7290;DHT22;3686;52.678;13.252;2022-08-01T13:35:49;22.10;99.90
7290;DHT22;3686;52.678;13.252;2022-08-01T13:38:15;22.10;1.00
7290;DHT22;3686;52.678;13.252;2022-08-01T13:40:41;22.20;1.00
7290;DHT22;3686;52.678;13.252;2022-08-01T13:43:06;22.20;1.00
7290;DHT22;3686;52.678;13.252;2022-08-01T13:45:32;22.40;99.90
7290;DHT22;3686;52.678;13.252;2022-08-01T13:47:59;22.60;1.00
7290;DHT22;3686;52.678;13.252;2022-08-01T13:50:24;22.80;1.00
7290;DHT22;3686;52.678;13.252;2022-08-01T13:53:02;22.90;99.90
7290;DHT22;3686;52.678;13.252;2022-08-01T13:55:28;23.10;99.90
7290;DHT22;3686;52.678;13.252;2022-08-01T13:57:54;23.20;77.60
7290;DHT22;3686;52.678;13.252;2022-08-01T14:00:19;23.30;1.00
7290;DHT22;3686;52.678;13.252;2022-08-01T14:02:45;23.40;1.00
7290;DHT22;3686;52.678;13.252;2022-08-01T14:05:11;23.40;1.00
7290;DHT22;3686;52.678;13.252;2022-08-01T14:07:36;23.50;1.00
7290;DHT22;3686;52.678;13.252;2022-08-01T14:10:02;23.50;1.00
7290;DHT22;3686;52.678;13.252;2022-08-01T14:12:28;23.40;1.00
7290;DHT22;3686;52.678;13.252;2022-08-01T14:14:54;23.40;1.00
7290;DHT22;3686;52.678;13.252;2022-08-01T14:17:19;23.30;1.00
7290;DHT22;3686;52.678;13.252;2022-08-01T14:19:45;23.20;1.00
7290;DHT22;3686;52.678;13.252;2022-08-01T14:22:11;23.20;1.00
7290;DHT22;3686;52.678;13.252;2022-08-01T14:24:36;23.10;1.00
7290;DHT22;3686;52.678;13.252;2022-08-01T14:27:02;23.00;1.00
7290;DHT22;3686;52.678;13.252;2022-08-01T14:29:27;22.90;1.00
7290;DHT22;3686;52.678;13.252;2022-08-01T14:31:53;22.90;1.00
7290;DHT22;3686;52.678;13.252;2022-08-01T14:34:19;22.90;1.00
7290;DHT22;3686;52.678;13.252;2022-08-01T14:36:44;22.90;1.00
7290;DHT22;3686;52.678;13.252;2022-08-01T14:39:10;22.90;1.00
7290;DHT22;3686;52.678;13.252;2022-08-01T14:41:36;22.90;1.00
7290;DHT22;3686;52.678;13.252;2022-08-01T14:44:02;23.10;1.00
7290;DHT22;3686;52.678;13.252;2022-08-01T14:46:29;23.40;1.00
7290;DHT22;3686;52.678;13.252;2022-08-01T14:48:54;23.80;1.00
7290;DHT22;3686;52.678;13.252;2022-08-01T14:51:20;24.20;1.00
7290;DHT22;3686;52.678;13.252;2022-08-01T14:53:46;24.50;1.00
7290;DHT22;3686;52.678;13.252;2022-08-01T14:56:11;24.70;99.90
7290;DHT22;3686;52.678;13.252;2022-08-01T14:58:37;24.90;99.90
7290;DHT22;3686;52.678;13.252;2022-08-01T15:01:03;25.00;99.90
7290;DHT22;3686;52.678;13.252;2022-08-01T15:03:31;25.10;99.90
7290;DHT22;3686;52.678;13.252;2022-08-01T15:05:57;25.20;99.90
7290;DHT22;3686;52.678;13.252;2022-08-01T15:08:23;25.20;99.90
7290;DHT22;3686;52.678;13.252;2022-08-01T15:10:49;25.20;99.90
7290;DHT22;3686;52.678;13.252;2022-08-01T15:13:14;25.10;99.90
7290;DHT22;3686;52.678;13.252;2022-08-01T15:15:45;25.10;99.90
7290;DHT22;3686;52.678;13.252;2022-08-01T15:18:12;25.00;99.90
7290;DHT22;3686;52.678;13.252;2022-08-01T15:20:38;24.90;99.90
7290;DHT22;3686;52.678;13.252;2022-08-01T15:23:04;24.90;99.90
7290;DHT22;3686;52.678;13.252;2022-08-01T15:25:29;24.90;99.90
7290;DHT22;3686;52.678;13.252;2022-08-01T15:27:55;25.00;99.90
7290;DHT22;3686;52.678;13.252;2022-08-01T15:30:21;25.00;99.90
7290;DHT22;3686;52.678;13.252;2022-08-01T15:32:46;25.00;99.90
7290;DHT22;3686;52.678;13.252;2022-08-01T15:35:12;25.00;99.90
7290;DHT22;3686;52.678;13.252;2022-08-01T15:37:37;25.00;99.90
7290;DHT22;3686;52.678;13.252;2022-08-01T15:40:12;25.00;99.90
7290;DHT22;3686;52.678;13.252;2022-08-01T15:42:38;24.90;99.90
7290;DHT22;3686;52.678;13.252;2022-08-01T15:45:04;24.70;99.90
7290;DHT22;3686;52.678;13.252;2022-08-01T15:47:31;24.60;99.90
7290;DHT22;3686;52.678;13.252;2022-08-01T15:49:57;24.50;99.90
7290;DHT22;3686;52.678;13.252;2022-08-01T15:52:25;24.40;99.90
7290;DHT22;3686;52.678;13.252;2022-08-01T15:54:51;24.40;99.90
7290;DHT22;3686;52.678;13.252;2022-08-01T15:57:17;24.40;99.90
7290;DHT22;3686;52.678;13.252;2022-08-01T15:59:42;24.40;99.90
7290;DHT22;3686;52.678;13.252;2022-08-01T16:02:08;24.30;99.90
7290;DHT22;3686;52.678;13.252;2022-08-01T16:04:34;24.30;99.90
7290;DHT22;3686;52.678;13.252;2022-08-01T16:07:00;24.30;99.90
7290;DHT22;3686;52.678;13.252;2022-08-01T16:09:26;24.20;99.90
7290;DHT22;3686;52.678;13.252;2022-08-01T16:11:52;24.20;99.90
7290;DHT22;3686;52.678;13.252;2022-08-01T16:14:18;24.20;99.90
7290;DHT22;3686;52.678;13.252;2022-08-01T16:16:46;24.10;99.90
7290;DHT22;3686;52.678;13.252;2022-08-01T16:19:11;24.10;99.90
7290;DHT22;3686;52.678;13.252;2022-08-01T16:21:37;24.10;99.90
7290;DHT22;3686;52.678;13.252;2022-08-01T16:24:06;24.10;99.90
7290;DHT22;3686;52.678;13.252;2022-08-01T16:26:34;24.10;99.90
7290;DHT22;3686;52.678;13.252;2022-08-01T16:28:59;24.10;99.90
7290;DHT22;3686;52.678;13.252;2022-08-01T16:31:25;24.10;99.90
7290;DHT22;3686;52.678;13.252;2022-08-01T16:33:51;24.00;99.90
7290;DHT22;3686;52.678;13.252;2022-08-01T16:36:17;23.90;99.90
7290;DHT22;3686;52.678;13.252;2022-08-01T16:38:43;23.90;99.90
7290;DHT22;3686;52.678;13.252;2022-08-01T16:41:09;23.80;99.90
7290;DHT22;3686;52.678;13.252;2022-08-01T16:43:34;23.80;99.90
7290;DHT22;3686;52.678;13.252;2022-08-01T16:46:00;23.70;99.90
7290;DHT22;3686;52.678;13.252;2022-08-01T16:48:26;23.70;99.90
7290;DHT22;3686;52.678;13.252;2022-08-01T16:50:52;23.60;99.90
7290;DHT22;3686;52.678;13.252;2022-08-01T16:53:19;23.60;99.90